Worcester, Massachusetts
Current Conditions -  °F | °C
As of 12:54 AM on Saturday 20 Dec 2014 (Local Time) from KORH Reporting Station
Clear Clear  
Wind Chill: 15°   Ceiling: Unl
Heat Index: 24°   Visibility: 10mi
Dew Point: 18°   Wind: 8mph
Humidity: 77%   Direction: 340°NNW
Pressure: 30.1"   Gusts: NA
Location:  42.26°N, 71.8°W
Report Text: KORH 200554Z AUTO 34007KT 10SM CLR M04/M08 A3010 RMK AO2 SLP209 T10441078 11022 21050 51011
Loading
Personal Weather Stations






























Interactive Weather Map New forecast layout! Learn more

10-Day Weather Forecast

Advertisements
Track Severe Weather on mobile